Time;durP1;ratioP1;P1;durP2;ratioP2;P2;SDS_P1;SDS_P2;PMS_P1;PMS_P2;Temp;Humidity;BMP_temperature;BMP_pressure;BME280_temperature;BME280_humidity;BME280_pressure;Samples;Min_cycle;Max_cycle;Signal;HPM_P1;HPM_P2
2023/07/29 00:00:36;;;;;;;4.03;1.50;;;;;;;-146.27;88.97;81729.38;5072062;28;20399;-68
2023/07/29 00:03:01;;;;;;;5.43;1.30;;;;;;;-146.27;88.55;81701.25;5072012;28;20089;-69
2023/07/29 00:05:27;;;;;;;3.17;1.02;;;;;;;-146.27;88.43;81697.22;5071935;28;20028;-69
2023/07/29 00:07:52;;;;;;;3.08;1.40;;;;;;;-146.27;87.98;81709.28;5072202;28;20025;-68
2023/07/29 00:10:18;;;;;;;2.05;1.20;;;;;;;-146.27;87.62;81717.31;5071940;28;20024;-69
2023/07/29 00:12:43;;;;;;;4.63;1.38;;;;;;;-146.27;87.51;81761.50;5071694;28;20037;-69
2023/07/29 00:15:09;;;;;;;1.88;1.35;;;;;;;-146.27;87.12;81729.38;5071529;28;20103;-70
2023/07/29 00:17:34;;;;;;;4.05;1.20;;;;;;;-146.27;86.80;81707.28;5071691;28;20029;-69
2023/07/29 00:20:00;;;;;;;4.03;1.15;;;;;;;-146.27;86.97;81777.56;5071500;28;20115;-68
2023/07/29 00:22:25;;;;;;;5.57;1.27;;;;;;;-146.27;86.65;81755.47;5071785;28;20032;-69
2023/07/29 00:24:57;;;;;;;3.65;1.33;;;;;;;-146.27;86.59;81763.50;5071726;28;20025;-68
2023/07/29 00:27:23;;;;;;;3.63;1.20;;;;;;;-146.27;86.54;81705.28;5071457;28;20111;-68
2023/07/29 00:29:49;;;;;;;3.78;1.27;;;;;;;-146.27;86.37;81775.56;5070531;28;20595;-68
2023/07/29 00:32:14;;;;;;;1.92;1.10;;;;;;;-146.27;86.26;81743.44;5071397;28;20107;-67
2023/07/29 00:34:40;;;;;;;3.67;1.45;;;;;;;-146.27;85.67;81787.63;5071330;28;20366;-68
2023/07/29 00:37:05;;;;;;;2.53;1.00;;;;;;;-146.27;85.67;81773.56;5070937;28;20111;-69
2023/07/29 00:39:31;;;;;;;7.47;1.50;;;;;;;-146.27;85.42;81753.47;5071211;28;20035;-68
2023/07/29 00:41:57;;;;;;;5.28;1.30;;;;;;;-146.27;85.72;81781.59;5071163;28;20059;-68
2023/07/29 00:44:22;;;;;;;2.53;1.08;;;;;;;-146.27;85.65;81777.56;5069344;28;20499;-69
2023/07/29 00:46:50;;;;;;;2.78;1.00;;;;;;;-146.27;85.62;81771.53;5071028;28;20036;-68
2023/07/29 00:49:16;;;;;;;2.97;1.17;;;;;;;-146.27;86.19;81809.72;5070721;28;20024;-69
2023/07/29 00:51:41;;;;;;;3.95;1.42;;;;;;;-146.27;86.55;81799.66;5070981;28;20031;-68
2023/07/29 00:54:07;;;;;;;1.30;1.13;;;;;;;-146.27;86.89;81849.88;5071117;28;20411;-68
2023/07/29 00:56:32;;;;;;;5.82;1.90;;;;;;;-146.27;87.73;81857.91;5071035;28;20032;-68
2023/07/29 00:59:01;;;;;;;4.20;1.67;;;;;;;-146.27;88.17;81896.06;5071088;28;20032;-68
2023/07/29 01:01:27;;;;;;;3.15;1.45;;;;;;;-146.27;88.35;81867.97;5070807;28;20025;-68
2023/07/29 01:03:53;;;;;;;3.55;1.52;;;;;;;-146.27;88.16;81869.97;5070422;28;20028;-68
2023/07/29 01:06:23;;;;;;;3.95;1.58;;;;;;;-146.27;88.38;81797.66;5070714;28;20035;-68
2023/07/29 01:09:02;;;;;;;5.25;1.30;;;;;;;-146.27;89.11;81890.06;5070598;28;20028;-69
2023/07/29 01:11:38;;;;;;;2.88;1.25;;;;;;;-146.27;89.26;81861.94;5070660;28;20036;-68
2023/07/29 01:14:34;;;;;;;6.85;1.85;;;;;;;-146.27;89.09;81853.91;5070898;28;20041;-68
2023/07/29 01:17:04;;;;;;;3.50;1.58;;;;;;;-146.27;89.26;81867.97;5070348;28;20545;-69
2023/07/29 01:19:44;;;;;;;4.07;1.60;;;;;;;-146.27;89.23;81855.91;5070267;28;20381;-68
2023/07/29 01:22:11;;;;;;;4.20;1.60;;;;;;;-146.27;89.36;81869.97;5070231;28;20140;-68
2023/07/29 01:24:36;;;;;;;5.82;1.40;;;;;;;-146.27;89.77;81888.03;5070415;28;20392;-68
2023/07/29 01:27:04;;;;;;;8.40;1.67;;;;;;;-146.27;89.96;81837.81;5070186;28;20021;-68
2023/07/29 01:29:30;;;;;;;6.65;1.60;;;;;;;-146.27;89.64;81896.06;5070345;28;20135;-68
2023/07/29 01:32:00;;;;;;;6.13;1.70;;;;;;;-146.27;90.03;81843.84;5070175;28;20100;-70
2023/07/29 01:35:02;;;;;;;4.53;1.40;;;;;;;-146.27;90.01;81853.91;5070205;28;20392;-68
2023/07/29 01:37:32;;;;;;;4.10;1.40;;;;;;;-146.27;90.47;81928.22;5067625;28;20139;-68
2023/07/29 01:40:00;;;;;;;7.70;1.70;;;;;;;-146.27;90.54;81900.09;5068644;28;20028;-69
2023/07/29 01:42:26;;;;;;;4.72;1.80;;;;;;;-146.27;91.12;81940.25;5069797;28;20490;-68
2023/07/29 01:44:52;;;;;;;6.93;2.38;;;;;;;-146.27;91.17;81867.97;5070110;28;20020;-68
2023/07/29 01:47:17;;;;;;;6.07;1.80;;;;;;;-146.27;91.31;81904.13;5070152;28;20074;-69
2023/07/29 01:49:42;;;;;;;5.72;1.90;;;;;;;-146.27;91.81;81950.31;5070152;28;20107;-68
2023/07/29 01:52:08;;;;;;;3.55;1.65;;;;;;;-146.27;91.28;81918.16;5070368;28;20028;-68
2023/07/29 01:54:33;;;;;;;9.05;2.17;;;;;;;-146.27;91.53;81946.28;5069736;28;20024;-68
2023/07/29 01:56:58;;;;;;;2.72;1.50;;;;;;;-146.27;91.61;81930.22;5069720;28;20472;-69
2023/07/29 01:59:24;;;;;;;4.45;2.08;;;;;;;-146.27;91.82;81950.31;5068729;28;20444;-69
2023/07/29 02:01:49;;;;;;;6.05;1.67;;;;;;;-146.27;91.79;81956.34;5069551;28;20499;-69
2023/07/29 02:04:15;;;;;;;2.72;1.67;;;;;;;-146.27;91.50;81946.28;5070169;28;20116;-69
2023/07/29 02:06:40;;;;;;;4.50;1.90;;;;;;;-146.27;91.29;81938.25;5070289;28;20017;-68
2023/07/29 02:09:05;;;;;;;3.80;1.73;;;;;;;-146.27;91.85;81976.41;5068967;28;20433;-68
2023/07/29 02:11:31;;;;;;;3.15;1.70;;;;;;;-146.27;91.54;81950.31;5070051;28;20029;-68
2023/07/29 02:13:57;;;;;;;3.45;1.75;;;;;;;-146.27;91.76;81948.31;5069475;28;20059;-68
2023/07/29 02:16:22;;;;;;;4.90;1.88;;;;;;;-146.27;91.33;81948.31;5069409;28;20107;-68
2023/07/29 02:18:49;;;;;;;5.82;1.50;;;;;;;-146.27;91.44;81946.28;5069586;28;20523;-68
2023/07/29 02:21:14;;;;;;;4.22;1.90;;;;;;;-146.27;91.39;81942.28;5069819;28;20036;-67
2023/07/29 02:23:40;;;;;;;7.90;2.55;;;;;;;-146.27;91.27;81946.28;5068594;28;20123;-68
2023/07/29 02:26:06;;;;;;;5.45;2.00;;;;;;;-146.27;91.53;81952.31;5069542;28;20032;-68
2023/07/29 02:28:31;;;;;;;2.53;1.50;;;;;;;-146.27;91.79;81968.38;5069458;28;20086;-68
2023/07/29 02:31:17;;;;;;;3.35;1.88;;;;;;;-146.27;92.06;82016.59;5069612;28;20039;-71
2023/07/29 02:33:43;;;;;;;5.90;2.10;;;;;;;-146.27;92.20;81998.50;5070143;28;20028;-68
2023/07/29 02:36:09;;;;;;;5.50;1.92;;;;;;;-146.27;91.89;81974.41;5069469;28;20442;-69
2023/07/29 02:38:35;;;;;;;4.68;1.73;;;;;;;-146.27;92.16;82000.53;5069468;28;20116;-69
2023/07/29 02:41:00;;;;;;;4.90;1.85;;;;;;;-146.27;92.39;82026.63;5069577;28;20021;-69
2023/07/29 02:43:25;;;;;;;3.28;1.70;;;;;;;-146.27;92.12;81966.38;5069689;28;20412;-68
2023/07/29 02:45:51;;;;;;;3.25;1.80;;;;;;;-146.27;92.00;81998.50;5069361;28;20016;-68
2023/07/29 02:48:16;;;;;;;5.88;1.73;;;;;;;-146.27;92.26;81940.25;5069537;28;20425;-68
2023/07/29 02:50:41;;;;;;;5.03;1.98;;;;;;;-146.27;92.09;82002.53;5068031;28;20028;-68
2023/07/29 02:53:07;;;;;;;5.90;2.00;;;;;;;-146.27;91.85;81984.47;5069662;28;20027;-69
2023/07/29 02:55:32;;;;;;;5.00;1.90;;;;;;;-146.27;92.17;81974.41;5073110;28;20032;-67
2023/07/29 02:57:57;;;;;;;4.93;3.20;;;;;;;-146.27;92.20;82010.56;5072913;28;20111;-68
2023/07/29 03:00:23;;;;;;;5.05;2.58;;;;;;;-146.27;92.37;81998.50;5073060;28;20021;-68
2023/07/29 03:02:50;;;;;;;7.28;2.40;;;;;;;-146.27;92.52;81980.44;5072954;28;20047;-68
2023/07/29 03:05:15;;;;;;;5.90;1.67;;;;;;;-146.27;92.69;82010.56;5073356;28;20052;-68
2023/07/29 03:07:40;;;;;;;3.75;2.00;;;;;;;-146.27;92.75;82062.78;5072855;28;20093;-69
2023/07/29 03:10:06;;;;;;;4.20;1.90;;;;;;;-146.27;92.94;82048.72;5072904;28;20051;-70
2023/07/29 03:12:31;;;;;;;3.80;2.05;;;;;;;-146.27;92.87;82034.66;5059829;28;20052;-68
2023/07/29 03:14:57;;;;;;;5.30;2.28;;;;;;;-146.27;93.25;82008.56;5072555;28;20056;-68
2023/07/29 03:17:22;;;;;;;2.90;1.70;;;;;;;-146.27;92.98;82014.59;5072917;28;20115;-68
2023/07/29 03:19:47;;;;;;;5.05;1.90;;;;;;;-146.27;93.65;82062.78;5072794;28;20064;-68
2023/07/29 03:22:13;;;;;;;5.20;1.90;;;;;;;-146.27;93.52;82048.72;5072665;28;20028;-68
2023/07/29 03:24:38;;;;;;;8.00;2.10;;;;;;;-146.27;93.91;81998.50;5071181;28;20028;-68
2023/07/29 03:27:05;;;;;;;9.65;3.28;;;;;;;-146.27;94.10;82058.78;5072602;28;20025;-69
2023/07/29 03:29:30;;;;;;;4.28;2.20;;;;;;;-146.27;94.13;82098.94;5072492;28;20107;-68
2023/07/29 03:31:55;;;;;;;7.20;2.22;;;;;;;-146.27;94.07;82038.69;5072640;28;20120;-68
2023/07/29 03:34:21;;;;;;;11.63;2.05;;;;;;;-146.27;94.00;82014.59;5072634;28;20032;-68
2023/07/29 03:36:47;;;;;;;4.38;2.88;;;;;;;-146.27;93.92;82028.66;5072449;28;20040;-68
2023/07/29 03:39:14;;;;;;;3.67;1.70;;;;;;;-146.27;94.21;82052.75;5072222;28;20032;-69
2023/07/29 03:41:39;;;;;;;4.43;2.15;;;;;;;-146.27;93.45;81998.50;5072697;28;20029;-68
2023/07/29 03:44:04;;;;;;;5.20;2.17;;;;;;;-146.27;93.66;82030.66;5072472;28;20086;-68
2023/07/29 03:46:31;;;;;;;7.82;2.40;;;;;;;-146.27;93.84;82004.53;5072333;28;20116;-68
2023/07/29 03:48:57;;;;;;;4.13;2.13;;;;;;;-146.27;93.92;82026.63;5072261;28;20063;-69
2023/07/29 03:51:24;;;;;;;5.95;2.17;;;;;;;-146.27;93.41;81980.44;5072177;28;20055;-68
2023/07/29 03:53:49;;;;;;;7.70;2.40;;;;;;;-146.27;93.11;81966.38;5072356;28;20024;-68
2023/07/29 03:56:15;;;;;;;7.68;2.08;;;;;;;-146.27;93.22;81978.44;5072672;28;20514;-68
2023/07/29 03:58:40;;;;;;;6.78;2.28;;;;;;;-146.27;93.44;82026.63;5070763;28;20064;-68
2023/07/29 04:01:06;;;;;;;6.57;2.38;;;;;;;-146.27;93.95;82012.56;5072022;28;20017;-68
2023/07/29 04:03:33;;;;;;;6.20;2.13;;;;;;;-146.27;93.62;82014.59;5071862;28;20024;-68
2023/07/29 04:05:58;;;;;;;5.10;2.80;;;;;;;-146.27;93.58;81994.50;5052445;28;20017;-68
2023/07/29 04:08:24;;;;;;;10.18;2.95;;;;;;;-146.27;94.18;82048.72;5070494;28;20029;-68
2023/07/29 04:10:49;;;;;;;9.10;2.90;;;;;;;-146.27;94.25;82016.59;5072037;28;20089;-69
2023/07/29 04:13:14;;;;;;;9.98;3.20;;;;;;;-146.27;94.13;81990.47;5072095;28;20045;-68
2023/07/29 04:15:40;;;;;;;7.95;2.92;;;;;;;-146.27;93.89;81980.44;5072123;28;20360;-69
2023/07/29 04:18:05;;;;;;;8.93;3.08;;;;;;;-146.27;94.07;82004.53;5071490;28;20480;-68
2023/07/29 04:20:31;;;;;;;9.15;3.05;;;;;;;-146.27;93.92;82014.59;5071398;28;20103;-68
2023/07/29 04:22:56;;;;;;;7.43;2.85;;;;;;;-146.27;93.97;82002.53;5072066;28;20033;-68
2023/07/29 04:25:21;;;;;;;6.03;2.83;;;;;;;-146.27;93.95;81962.34;5072031;28;20028;-68
2023/07/29 04:27:47;;;;;;;6.70;2.90;;;;;;;-146.27;93.71;81976.41;5070225;28;20159;-68
2023/07/29 04:30:12;;;;;;;8.05;3.20;;;;;;;-146.27;93.79;81990.47;5071562;28;20055;-69
2023/07/29 04:32:38;;;;;;;6.53;3.47;;;;;;;-146.27;94.48;82036.69;5071484;28;20512;-68
2023/07/29 04:35:03;;;;;;;9.82;3.40;;;;;;;-146.27;94.19;81986.47;5071415;28;20032;-68
2023/07/29 04:37:29;;;;;;;10.75;3.67;;;;;;;-146.27;94.38;81994.50;5071245;28;20036;-68
2023/07/29 04:39:54;;;;;;;10.38;3.42;;;;;;;-146.27;95.47;82022.63;5071778;28;20033;-68
2023/07/29 04:42:19;;;;;;;6.75;3.50;;;;;;;-146.27;95.38;82040.69;5071382;28;20028;-69
2023/07/29 04:44:45;;;;;;;7.22;3.55;;;;;;;-146.27;95.53;82018.59;5071362;28;20028;-67
2023/07/29 04:47:10;;;;;;;8.52;3.70;;;;;;;-146.27;94.78;82022.63;5071330;28;20127;-67
2023/07/29 04:49:35;;;;;;;12.93;4.20;;;;;;;-146.27;94.91;82040.69;5070214;28;20031;-68
2023/07/29 04:52:01;;;;;;;5.72;3.63;;;;;;;-146.27;95.07;82018.59;5070868;28;20024;-68
2023/07/29 04:54:26;;;;;;;8.77;3.63;;;;;;;-146.27;95.27;81988.47;5070931;28;20028;-67
2023/07/29 04:56:52;;;;;;;9.38;3.58;;;;;;;-146.27;94.99;82034.66;5070895;28;20126;-67
2023/07/29 04:59:17;;;;;;;8.73;3.83;;;;;;;-146.27;95.81;82054.75;5070554;28;20020;-67
2023/07/29 05:01:43;;;;;;;10.40;4.53;;;;;;;-146.27;95.79;82046.72;5070591;28;20060;-67
2023/07/29 05:04:08;;;;;;;7.22;3.20;;;;;;;-146.27;95.66;81990.47;5070308;28;20024;-69
2023/07/29 05:06:34;;;;;;;9.05;3.67;;;;;;;-146.27;95.48;81982.44;5071006;28;20016;-68
2023/07/29 05:09:11;;;;;;;6.85;3.28;;;;;;;-146.27;96.06;82000.53;5070654;28;20055;-67
2023/07/29 05:11:37;;;;;;;12.57;3.80;;;;;;;-146.27;95.70;81980.44;5070140;28;20032;-67
2023/07/29 05:14:04;;;;;;;8.02;3.60;;;;;;;-146.27;95.77;81982.44;5070091;28;20952;-67
2023/07/29 05:16:30;;;;;;;8.32;4.15;;;;;;;-146.27;95.68;81974.41;5069705;28;20384;-67
2023/07/29 05:18:55;;;;;;;7.30;3.90;;;;;;;-146.27;95.53;81954.31;5070238;28;20029;-67
2023/07/29 05:21:20;;;;;;;10.60;3.05;;;;;;;-146.27;95.47;81954.31;5070696;28;20099;-69
2023/07/29 05:23:46;;;;;;;8.18;3.15;;;;;;;-146.27;96.57;81976.41;5070432;28;20028;-67
2023/07/29 05:26:11;;;;;;;9.77;3.47;;;;;;;-146.27;95.90;81976.41;5070539;28;20036;-68
2023/07/29 05:28:37;;;;;;;9.23;3.67;;;;;;;-146.27;95.79;81966.38;5070434;28;20020;-68
2023/07/29 05:31:02;;;;;;;11.13;3.20;;;;;;;-146.27;95.64;81952.31;5070276;28;20119;-68
2023/07/29 05:33:27;;;;;;;7.40;3.50;;;;;;;-146.27;95.41;81954.31;5068831;28;20028;-67
2023/07/29 05:35:53;;;;;;;8.05;3.70;;;;;;;-146.27;95.99;81952.31;5068761;28;20360;-68
2023/07/29 05:38:18;;;;;;;10.57;3.40;;;;;;;-146.27;96.15;81950.31;5070200;28;20028;-68
2023/07/29 05:40:43;;;;;;;6.22;3.95;;;;;;;-146.27;96.45;81938.25;5070464;28;20056;-67
2023/07/29 05:43:09;;;;;;;12.18;4.20;;;;;;;-146.27;96.59;81958.34;5070055;28;20082;-67
2023/07/29 05:45:34;;;;;;;9.20;3.85;;;;;;;-146.27;96.46;81940.25;5070265;28;20068;-68
2023/07/29 05:47:59;;;;;;;7.43;3.22;;;;;;;-146.27;96.30;81912.16;5070112;28;20017;-67
2023/07/29 05:50:25;;;;;;;8.48;3.63;;;;;;;-146.27;96.17;81936.25;5070037;28;20028;-69
2023/07/29 05:52:50;;;;;;;12.90;4.20;;;;;;;-146.27;95.99;81954.31;5069992;28;20116;-70
2023/07/29 05:55:16;;;;;;;8.30;4.00;;;;;;;-146.27;96.16;81930.22;5070254;28;20024;-70
2023/07/29 05:57:41;;;;;;;8.95;4.22;;;;;;;-146.27;96.25;81946.28;5069602;28;20034;-69
2023/07/29 06:00:07;;;;;;;11.43;4.03;;;;;;;-146.27;95.95;81906.13;5070303;28;20021;-69
2023/07/29 06:02:32;;;;;;;8.38;3.30;;;;;;;-146.27;96.06;81873.97;5070068;28;20550;-70
2023/07/29 06:04:57;;;;;;;6.32;3.08;;;;;;;-146.27;96.15;81910.13;5070304;28;20372;-68
2023/07/29 06:07:23;;;;;;;10.60;3.53;;;;;;;-146.27;96.49;81890.06;5069995;28;20392;-69
2023/07/29 06:09:49;;;;;;;10.60;3.22;;;;;;;-146.27;96.56;81884.03;5069858;28;20024;-69
2023/07/29 06:12:14;;;;;;;8.75;3.53;;;;;;;-146.27;96.22;81845.88;5070001;28;20107;-68
2023/07/29 06:14:40;;;;;;;8.02;3.15;;;;;;;-146.27;96.00;81845.88;5069317;28;20496;-67
2023/07/29 06:17:06;;;;;;;8.00;2.60;;;;;;;-146.27;95.99;81892.06;5069705;28;20031;-69
2023/07/29 06:19:32;;;;;;;8.68;3.00;;;;;;;-146.27;95.55;81813.72;5069842;28;20025;-69
2023/07/29 06:21:57;;;;;;;7.68;2.72;;;;;;;-146.27;96.03;81878.00;5069888;28;20546;-68
2023/07/29 06:24:22;;;;;;;6.88;2.70;;;;;;;-146.27;96.12;81829.78;5069960;28;20033;-68
2023/07/29 06:26:48;;;;;;;8.23;3.47;;;;;;;-146.27;96.15;81797.66;5069939;28;20031;-69
2023/07/29 06:29:13;;;;;;;9.00;2.88;;;;;;;-146.27;96.62;81849.88;5073555;28;20024;-68
2023/07/29 06:31:38;;;;;;;7.68;2.75;;;;;;;-146.27;96.81;81861.94;5073724;28;20488;-69
2023/07/29 06:34:04;;;;;;;11.00;3.05;;;;;;;-146.27;98.28;81865.94;5073645;28;20028;-69
2023/07/29 06:36:29;;;;;;;8.50;3.30;;;;;;;-146.27;97.81;81797.66;5073652;28;20108;-69
2023/07/29 06:38:54;;;;;;;9.75;2.83;;;;;;;-146.27;98.61;81837.81;5073256;28;20047;-69
2023/07/29 06:41:20;;;;;;;12.20;2.95;;;;;;;-146.27;99.72;81882.00;5071555;28;20020;-69
2023/07/29 06:43:45;;;;;;;9.63;3.13;;;;;;;-146.27;100.00;81886.03;5073561;28;20082;-70
2023/07/29 06:46:11;;;;;;;10.57;3.53;;;;;;;-146.27;100.00;81833.81;5073797;28;20607;-68
2023/07/29 06:48:36;;;;;;;5.85;2.90;;;;;;;-146.27;100.00;81859.94;5072192;28;20047;-68
2023/07/29 06:51:02;;;;;;;7.22;3.00;;;;;;;-146.27;100.00;81873.97;5071744;28;20048;-68
2023/07/29 06:53:28;;;;;;;13.75;3.10;;;;;;;-146.27;100.00;81865.94;5071440;28;20217;-68
2023/07/29 06:55:53;;;;;;;11.13;2.72;;;;;;;-146.27;100.00;81819.75;5071604;28;20036;-67
2023/07/29 06:58:19;;;;;;;15.50;2.78;;;;;;;-146.27;100.00;81777.56;5071372;28;20020;-69
2023/07/29 07:00:45;;;;;;;10.82;2.45;;;;;;;-146.27;99.46;81747.44;5071905;28;20032;-67
2023/07/29 07:03:10;;;;;;;5.65;1.98;;;;;;;-146.27;98.79;81741.41;5071627;28;20056;-68
2023/07/29 07:05:35;;;;;;;5.43;2.05;;;;;;;-146.27;98.39;81721.34;5071282;28;20476;-68
2023/07/29 07:08:01;;;;;;;6.53;1.60;;;;;;;-146.27;96.86;81729.38;5073130;28;20162;-68
2023/07/29 07:10:26;;;;;;;4.22;1.45;;;;;;;-146.27;96.94;81737.41;5073542;28;20020;-68
2023/07/29 07:12:52;;;;;;;7.93;1.92;;;;;;;-146.27;96.52;81679.16;5073216;28;20028;-68
2023/07/29 07:15:17;;;;;;;4.60;1.42;;;;;;;-146.27;94.95;81636.97;5073158;28;20465;-67
2023/07/29 07:17:42;;;;;;;6.57;1.27;;;;;;;-146.27;94.04;81681.16;5073095;28;20107;-69
2023/07/29 07:20:08;;;;;;;9.05;1.60;;;;;;;-146.27;93.11;81675.16;5073125;28;20028;-69
2023/07/29 07:22:33;;;;;;;3.35;1.42;;;;;;;-146.27;92.10;81602.84;5072494;28;20040;-69
2023/07/29 07:24:59;;;;;;;5.80;1.52;;;;;;;-146.27;91.99;81568.69;5072991;28;20111;-69
2023/07/29 07:27:24;;;;;;;6.20;1.20;;;;;;;-146.27;91.47;81474.31;5073087;28;20448;-68
2023/07/29 07:29:50;;;;;;;6.93;1.48;;;;;;;-146.27;89.34;81444.19;5072528;28;20051;-67
2023/07/29 07:32:15;;;;;;;5.57;1.30;;;;;;;-146.27;87.33;81397.97;5072845;28;20142;-69
2023/07/29 07:34:40;;;;;;;5.22;1.73;;;;;;;-146.27;86.89;81456.22;5072796;28;20028;-68
2023/07/29 07:37:06;;;;;;;2.55;1.52;;;;;;;-146.27;86.99;81391.97;5072615;28;20021;-67
2023/07/29 07:39:31;;;;;;;5.70;1.23;;;;;;;-146.27;82.52;81484.34;5071462;28;20561;-70
2023/07/29 07:41:57;;;;;;;3.00;1.30;;;;;;;-146.27;81.11;81488.38;5072979;28;20029;-68
2023/07/29 07:44:22;;;;;;;3.95;1.45;;;;;;;-146.27;80.29;81548.59;5072477;28;20119;-69
2023/07/29 07:46:48;;;;;;;3.33;1.20;;;;;;;-146.27;80.54;81520.50;5072304;28;20098;-68
2023/07/29 07:49:14;;;;;;;5.50;2.45;;;;;;;-146.27;81.33;81508.44;5072095;28;20036;-68
2023/07/29 07:51:39;;;;;;;8.30;1.83;;;;;;;-146.27;80.70;81488.38;5072344;28;20036;-70
2023/07/29 07:54:05;;;;;;;8.43;1.63;;;;;;;-146.27;80.48;81492.38;5071311;28;20107;-69
2023/07/29 07:56:30;;;;;;;3.50;2.22;;;;;;;-146.27;80.84;81492.38;5071832;28;20093;-68
2023/07/29 07:58:56;;;;;;;4.40;1.23;;;;;;;-146.27;81.09;81436.16;5072226;28;20048;-71
2023/07/29 08:01:21;;;;;;;5.53;1.40;;;;;;;-146.27;81.82;81452.22;5072067;28;20387;-69
2023/07/29 08:03:46;;;;;;;9.60;1.63;;;;;;;-146.27;82.25;81486.34;5071838;28;20078;-68
2023/07/29 08:06:12;;;;;;;6.68;1.52;;;;;;;-146.27;83.14;81464.25;5071653;28;20031;-68
2023/07/29 08:08:37;;;;;;;4.65;1.30;;;;;;;-146.27;83.49;81434.13;5071634;28;20048;-69
2023/07/29 08:11:03;;;;;;;8.15;1.55;;;;;;;-146.27;83.39;81375.91;5071661;28;20066;-68
2023/07/29 08:13:28;;;;;;;5.43;1.55;;;;;;;-146.27;83.55;81281.50;5071623;28;20408;-68
2023/07/29 08:15:53;;;;;;;6.03;1.60;;;;;;;-146.27;82.92;81295.56;5071985;28;20032;-68
2023/07/29 08:18:20;;;;;;;7.22;1.90;;;;;;;-146.27;82.15;81339.75;5071946;28;20036;-68
2023/07/29 08:20:53;;;;;;;4.57;1.60;;;;;;;-146.27;81.71;81279.50;5071993;28;20063;-68
2023/07/29 08:23:19;;;;;;;3.10;1.30;;;;;;;-146.27;79.70;81243.34;5070552;28;20143;-67
2023/07/29 08:25:44;;;;;;;7.60;1.75;;;;;;;-146.27;79.77;81263.44;5071682;28;20103;-68
2023/07/29 08:28:11;;;;;;;4.55;1.58;;;;;;;-146.27;79.00;81257.41;5071598;28;20012;-69
2023/07/29 08:30:36;;;;;;;3.15;1.40;;;;;;;-146.27;78.90;81319.66;5071678;28;20032;-68
2023/07/29 08:33:01;;;;;;;4.40;1.30;;;;;;;-146.27;79.55;81299.59;5071624;28;20089;-68
2023/07/29 08:35:27;;;;;;;6.40;1.88;;;;;;;-146.27;79.55;81195.16;5070835;28;20024;-68
2023/07/29 08:37:52;;;;;;;4.68;1.52;;;;;;;-146.27;78.57;81179.09;5070986;28;20659;-69
2023/07/29 08:40:19;;;;;;;4.85;1.60;;;;;;;-146.27;77.64;81167.03;5070712;28;20410;-68
2023/07/29 08:42:46;;;;;;;7.05;1.70;;;;;;;-146.27;76.32;81205.19;5070615;28;20499;-68
2023/07/29 08:45:13;;;;;;;6.15;1.40;;;;;;;-146.27;76.99;81199.16;5071075;28;20024;-68
2023/07/29 08:47:39;;;;;;;5.65;1.60;;;;;;;-146.27;77.12;81223.25;5071197;28;20025;-68
2023/07/29 08:50:05;;;;;;;4.18;1.33;;;;;;;-146.27;77.12;81150.97;5070767;28;20549;-68
2023/07/29 08:52:35;;;;;;;4.38;1.10;;;;;;;-146.27;77.03;81209.22;5070586;28;20028;-68
2023/07/29 08:55:00;;;;;;;5.63;1.70;;;;;;;-146.27;77.12;81207.19;5070897;28;20479;-68
2023/07/29 08:57:27;;;;;;;3.78;1.45;;;;;;;-146.27;77.59;81283.50;5069922;28;20023;-69
2023/07/29 08:59:52;;;;;;;7.43;1.80;;;;;;;-146.27;78.04;81275.47;5069180;28;20028;-69
2023/07/29 09:02:18;;;;;;;3.33;1.50;;;;;;;-146.27;78.11;81259.41;5070855;28;20029;-70
2023/07/29 09:04:43;;;;;;;4.50;1.48;;;;;;;-146.27;78.11;81279.50;5069436;28;20162;-69
2023/07/29 09:07:10;;;;;;;8.60;2.10;;;;;;;-146.27;78.32;81207.19;5070327;28;20031;-69
2023/07/29 09:09:35;;;;;;;6.50;1.65;;;;;;;-146.27;79.94;81275.47;5070387;28;20038;-68
2023/07/29 09:12:08;;;;;;;3.15;1.70;;;;;;;-146.27;82.03;81343.75;5086567;27;20499;-69
2023/07/29 09:14:33;;;;;;;5.20;1.63;;;;;;;-146.27;86.24;81520.50;5087324;28;20040;-67
2023/07/29 09:16:59;;;;;;;4.03;1.98;;;;;;;-146.27;90.25;81592.78;5087530;28;20055;-68
2023/07/29 09:19:26;;;;;;;3.72;2.13;;;;;;;-146.27;92.66;81687.19;5087508;28;20464;-67
2023/07/29 09:21:52;;;;;;;6.32;2.90;;;;;;;-146.27;95.27;81715.31;5087425;28;20023;-70
2023/07/29 09:24:18;;;;;;;9.43;3.17;;;;;;;-146.27;97.07;81729.38;5087495;28;20028;-69
2023/07/29 09:26:50;;;;;;;3.92;2.88;;;;;;;-146.27;98.10;81677.16;5087457;28;20052;-69
2023/07/29 09:29:15;;;;;;;7.90;2.80;;;;;;;-146.27;99.15;81713.31;5086705;28;20475;-69
2023/07/29 09:31:41;;;;;;;6.75;2.90;;;;;;;-146.27;99.54;81703.25;5086092;28;20042;-69
2023/07/29 09:34:06;;;;;;;4.47;2.80;;;;;;;-146.27;99.10;81713.31;5082574;28;20120;-69
2023/07/29 09:36:33;;;;;;;9.50;3.08;;;;;;;-146.27;98.94;81677.16;5087265;28;20043;-70
2023/07/29 09:38:59;;;;;;;7.45;2.92;;;;;;;-146.27;98.60;81677.16;5069873;28;20036;-69
2023/07/29 09:41:30;;;;;;;7.68;2.80;;;;;;;-146.27;97.94;81645.00;5081223;28;20369;-68
2023/07/29 09:43:58;;;;;;;7.85;2.55;;;;;;;-146.27;97.86;81624.94;5075035;28;20028;-68
2023/07/29 09:46:28;;;;;;;3.65;2.25;;;;;;;-146.27;95.96;81602.84;5075465;28;20029;-68
2023/07/29 09:48:56;;;;;;;6.32;2.55;;;;;;;-146.27;95.06;81681.16;5066722;28;20107;-69
2023/07/29 09:51:22;;;;;;;6.40;2.78;;;;;;;-146.27;95.47;81584.75;5085762;28;20021;-69
2023/07/29 09:53:50;;;;;;;5.38;2.80;;;;;;;-146.27;94.97;81673.13;5087026;28;20370;-69
2023/07/29 09:56:15;;;;;;;8.20;2.50;;;;;;;-146.27;93.54;81620.91;5086969;28;20028;-69
2023/07/29 09:58:45;;;;;;;7.70;2.50;;;;;;;-146.27;93.25;81606.84;5085487;28;20078;-69
2023/07/29 10:01:11;;;;;;;3.50;2.05;;;;;;;-146.27;93.52;81544.59;5087263;28;20016;-69
2023/07/29 10:03:37;;;;;;;5.43;2.45;;;;;;;-146.27;93.10;81512.47;5066960;28;20020;-70
2023/07/29 10:06:04;;;;;;;5.78;2.22;;;;;;;-146.27;91.77;81596.81;5066351;28;20082;-69
2023/07/29 10:08:39;;;;;;;5.82;2.20;;;;;;;-146.27;92.07;81524.50;5066314;28;20025;-69
2023/07/29 10:11:09;;;;;;;6.00;1.90;;;;;;;-146.27;91.60;81594.81;5065955;28;20519;-69
2023/07/29 10:13:37;;;;;;;7.10;1.70;;;;;;;-146.27;91.81;81556.66;5066129;28;20090;-69
2023/07/29 10:16:04;;;;;;;4.78;1.70;;;;;;;-146.27;90.58;81570.69;5065883;28;20438;-69
2023/07/29 10:18:31;;;;;;;3.13;1.77;;;;;;;-146.27;89.72;81580.75;5066407;28;20032;-69
2023/07/29 10:20:58;;;;;;;5.32;1.58;;;;;;;-146.27;90.15;81516.47;5070817;28;20020;-69
2023/07/29 10:23:25;;;;;;;4.20;1.67;;;;;;;-146.27;91.61;81540.56;5073358;28;20103;-68
2023/07/29 10:26:06;;;;;;;2.70;1.35;;;;;;;-146.27;91.84;81530.53;5060675;28;20526;-69
2023/07/29 10:28:34;;;;;;;6.13;1.42;;;;;;;-146.27;92.01;81600.84;5051996;28;20079;-69
2023/07/29 10:31:00;;;;;;;2.70;1.48;;;;;;;-146.27;92.64;81580.75;5063107;28;20036;-68
2023/07/29 10:33:26;;;;;;;7.85;2.30;;;;;;;-146.27;92.86;81566.69;5072510;28;20078;-69
2023/07/29 10:35:55;;;;;;;4.32;1.35;;;;;;;-146.27;93.69;81526.53;5055096;28;20021;-68
2023/07/29 10:38:24;;;;;;;2.65;1.20;;;;;;;-146.27;93.11;81510.44;5052522;28;20554;-68
2023/07/29 10:40:56;;;;;;;7.05;1.17;;;;;;;-146.27;91.85;81618.91;5052468;28;20096;-68
2023/07/29 10:43:27;;;;;;;1.85;0.80;;;;;;;-146.27;91.77;81632.97;5052442;28;20028;-68
2023/07/29 10:45:53;;;;;;;2.25;0.95;;;;;;;-146.27;91.97;81564.69;5052664;28;20496;-69
2023/07/29 10:48:36;;;;;;;3.30;1.17;;;;;;;-146.27;91.55;81544.59;5072152;28;20054;-69
2023/07/29 10:51:25;;;;;;;1.83;0.65;;;;;;;-146.27;92.42;81530.53;5072395;28;20081;-69
2023/07/29 10:54:12;;;;;;;3.00;0.70;;;;;;;-146.27;91.65;81520.50;5072371;28;20032;-69
2023/07/29 10:56:42;;;;;;;5.60;0.90;;;;;;;-146.27;91.10;81542.59;5071158;28;20035;-69
2023/07/29 10:59:17;;;;;;;2.17;0.63;;;;;;;-146.27;91.36;81492.38;5066018;28;20036;-69
2023/07/29 11:01:50;;;;;;;1.17;0.70;;;;;;;-146.27;91.18;81464.25;5055174;28;20191;-70
2023/07/29 11:04:26;;;;;;;1.88;0.80;;;;;;;-146.27;91.41;81406.03;5063240;28;20451;-70
2023/07/29 11:07:01;;;;;;;1.45;1.10;;;;;;;-146.27;90.04;81361.84;5071105;28;20578;-68
2023/07/29 11:09:52;;;;;;;4.03;1.10;;;;;;;-146.27;90.15;81245.34;5069810;28;20408;-68
2023/07/29 11:12:54;;;;;;;2.45;1.20;;;;;;;-146.27;90.13;81235.31;5072086;28;20041;-69
2023/07/29 11:15:20;;;;;;;1.10;1.00;;;;;;;-146.27;89.06;81247.38;5064040;28;20025;-69